Leadville, CO

2:23 PM MDT on September 02, 2015 (GMT -0600)
Lake County | | Change Station
CLOSE
Current Station
Airport
Location: Leadville,
Elevation: 9928 ft
Nearby Weather Stations

Elev 9928 ft 39.23 °N, 106.32 °W | Updated 30 minutes ago

Partly Cloudy
Partly Cloudy
64 °F
Feels Like 64 °F
N
12
Wind Variable Wind from West

Today
High -- | Low -- °F
--% Chance of Precip.
Yesterday
High -- | Low -- °F
Precip. -- in
6:34 AM 7:34 PM
Waning Gibbous, 77% visible
Pressure 29.94 in
Visibility 10.0 miles
Clouds Mostly Cloudy 6500 ft
Dew Point 36 °F
Humidity 35%
Rainfall 0.12 in
Snow Depth Not available.
UV 6 out of 12
Pollen 10.50 out of 12
Air Quality Not available.
Flu Activity Not available.
METAR KLXV 021953Z AUTO 26010KT 10SM BKN065 18/02 A3044 RMK AO2 SLP138 T01780022
Pressure 29.94 in
Visibility 10.0 miles
Clouds Mostly Cloudy 6500 ft
Dew Point 36 °F
Humidity 35%
Rainfall 0.12 in
Snow Depth Not available.
UV 6 out of 12
Pollen 10.50 out of 12
Air Quality Not available.
Flu Activity Not available.
METAR KLXV 021953Z AUTO 26010KT 10SM BKN065 18/02 A3044 RMK AO2 SLP138 T01780022

10-Day Weather Forecast

×

Almanac

Astronomy

Sep. 02, 2015 Rise Set
Actual Time
Civil Twilight
Nautical Twilight
Astronomical Twilight
Moon
Length of Visible Light
Length of Day
Tomorrow will be .
, % of the Moon is Illuminated

Today's Extremes

State Highs State Lows

Community

WunderPhotos

Upload Photos

1,851,804 photos uploaded!

WunderBlogs® & News

Nearby

Air Quality

  Air Quality AQ Index Pollutant
Not available.

Snow Depth

Station Depth Elevation

Earthquake Activity

City Distance Mag. Time & Date
Minimum magnitude displayed is 2.5.

Coastal Water Temperatures

Place Temperature

Stations

Nearby Weather Stations

Station Location Temp. Windchill Dew Point Humidity Wind Precip. Elev Updated Type